sensor_id;sensor_type;location;lat;lon;timestamp;P1;durP1;ratioP1;P2;durP2;ratioP2
12350;SDS011;6240;51.538;7.696;2023-02-18T00:01:14;24.73;;;21.40;;
12350;SDS011;6240;51.538;7.696;2023-02-18T00:03:42;26.83;;;22.57;;
12350;SDS011;6240;51.538;7.696;2023-02-18T00:06:10;30.57;;;23.53;;
12350;SDS011;6240;51.538;7.696;2023-02-18T00:08:39;28.57;;;24.63;;
12350;SDS011;6240;51.538;7.696;2023-02-18T00:11:07;31.63;;;24.50;;
12350;SDS011;6240;51.538;7.696;2023-02-18T00:13:35;33.43;;;26.67;;
12350;SDS011;6240;51.538;7.696;2023-02-18T00:16:03;32.60;;;25.80;;
12350;SDS011;6240;51.538;7.696;2023-02-18T00:18:32;34.17;;;27.50;;
12350;SDS011;6240;51.538;7.696;2023-02-18T00:21:02;37.77;;;29.07;;
12350;SDS011;6240;51.538;7.696;2023-02-18T00:23:29;35.97;;;29.00;;
12350;SDS011;6240;51.538;7.696;2023-02-18T00:26:06;35.60;;;29.87;;
12350;SDS011;6240;51.538;7.696;2023-02-18T00:28:34;37.03;;;29.10;;
12350;SDS011;6240;51.538;7.696;2023-02-18T00:31:07;35.73;;;29.20;;
12350;SDS011;6240;51.538;7.696;2023-02-18T00:33:36;35.00;;;28.57;;
12350;SDS011;6240;51.538;7.696;2023-02-18T00:36:06;34.77;;;29.57;;
12350;SDS011;6240;51.538;7.696;2023-02-18T00:38:34;35.77;;;29.77;;
12350;SDS011;6240;51.538;7.696;2023-02-18T00:41:10;33.03;;;28.20;;
12350;SDS011;6240;51.538;7.696;2023-02-18T00:43:39;33.03;;;27.40;;
12350;SDS011;6240;51.538;7.696;2023-02-18T00:46:06;36.57;;;28.13;;
12350;SDS011;6240;51.538;7.696;2023-02-18T00:48:34;33.03;;;28.40;;
12350;SDS011;6240;51.538;7.696;2023-02-18T00:51:01;32.70;;;26.50;;
12350;SDS011;6240;51.538;7.696;2023-02-18T00:53:30;32.67;;;25.97;;
12350;SDS011;6240;51.538;7.696;2023-02-18T00:55:58;34.10;;;27.50;;
12350;SDS011;6240;51.538;7.696;2023-02-18T00:58:28;30.20;;;25.50;;
12350;SDS011;6240;51.538;7.696;2023-02-18T01:00:55;32.20;;;26.10;;
12350;SDS011;6240;51.538;7.696;2023-02-18T01:03:23;32.43;;;24.37;;
12350;SDS011;6240;51.538;7.696;2023-02-18T01:05:51;31.53;;;24.43;;
12350;SDS011;6240;51.538;7.696;2023-02-18T01:08:19;28.27;;;23.20;;
12350;SDS011;6240;51.538;7.696;2023-02-18T01:10:47;29.83;;;23.90;;
12350;SDS011;6240;51.538;7.696;2023-02-18T01:13:16;31.40;;;24.17;;
12350;SDS011;6240;51.538;7.696;2023-02-18T01:15:46;28.27;;;23.43;;
12350;SDS011;6240;51.538;7.696;2023-02-18T01:18:13;31.27;;;25.20;;
12350;SDS011;6240;51.538;7.696;2023-02-18T01:20:41;29.90;;;24.93;;
12350;SDS011;6240;51.538;7.696;2023-02-18T01:23:09;31.23;;;24.60;;
12350;SDS011;6240;51.538;7.696;2023-02-18T01:25:36;31.57;;;25.43;;
12350;SDS011;6240;51.538;7.696;2023-02-18T01:28:04;31.57;;;24.37;;
12350;SDS011;6240;51.538;7.696;2023-02-18T01:30:32;30.90;;;24.63;;
12350;SDS011;6240;51.538;7.696;2023-02-18T01:33:03;30.73;;;24.27;;
12350;SDS011;6240;51.538;7.696;2023-02-18T01:35:30;32.47;;;24.47;;
12350;SDS011;6240;51.538;7.696;2023-02-18T01:37:58;31.83;;;24.63;;
12350;SDS011;6240;51.538;7.696;2023-02-18T01:40:28;29.67;;;23.87;;
12350;SDS011;6240;51.538;7.696;2023-02-18T01:42:59;37.00;;;24.07;;
12350;SDS011;6240;51.538;7.696;2023-02-18T01:45:48;32.70;;;24.67;;
12350;SDS011;6240;51.538;7.696;2023-02-18T01:48:18;31.17;;;23.33;;
12350;SDS011;6240;51.538;7.696;2023-02-18T01:50:48;29.73;;;23.07;;
12350;SDS011;6240;51.538;7.696;2023-02-18T01:53:17;30.20;;;22.73;;
12350;SDS011;6240;51.538;7.696;2023-02-18T01:55:46;29.17;;;21.63;;
12350;SDS011;6240;51.538;7.696;2023-02-18T01:58:13;29.77;;;22.03;;
12350;SDS011;6240;51.538;7.696;2023-02-18T02:00:41;26.27;;;20.43;;
12350;SDS011;6240;51.538;7.696;2023-02-18T02:03:09;26.33;;;20.50;;
12350;SDS011;6240;51.538;7.696;2023-02-18T02:05:38;31.00;;;20.17;;
12350;SDS011;6240;51.538;7.696;2023-02-18T02:08:09;28.57;;;20.53;;
12350;SDS011;6240;51.538;7.696;2023-02-18T02:10:40;29.27;;;21.30;;
12350;SDS011;6240;51.538;7.696;2023-02-18T02:13:14;30.57;;;21.53;;
12350;SDS011;6240;51.538;7.696;2023-02-18T02:15:43;30.37;;;21.17;;
12350;SDS011;6240;51.538;7.696;2023-02-18T02:18:22;28.17;;;20.73;;
12350;SDS011;6240;51.538;7.696;2023-02-18T02:23:56;29.83;;;22.20;;
12350;SDS011;6240;51.538;7.696;2023-02-18T02:32:01;34.37;;;22.47;;
12350;SDS011;6240;51.538;7.696;2023-02-18T02:34:47;32.37;;;22.17;;
12350;SDS011;6240;51.538;7.696;2023-02-18T02:37:17;29.20;;;20.77;;
12350;SDS011;6240;51.538;7.696;2023-02-18T02:39:51;28.67;;;21.37;;
12350;SDS011;6240;51.538;7.696;2023-02-18T02:42:24;30.93;;;22.23;;
12350;SDS011;6240;51.538;7.696;2023-02-18T02:44:54;29.20;;;21.20;;
12350;SDS011;6240;51.538;7.696;2023-02-18T02:47:26;25.17;;;18.60;;
12350;SDS011;6240;51.538;7.696;2023-02-18T02:50:05;29.37;;;21.03;;
12350;SDS011;6240;51.538;7.696;2023-02-18T02:52:36;27.03;;;19.07;;
12350;SDS011;6240;51.538;7.696;2023-02-18T02:55:07;24.50;;;18.80;;
12350;SDS011;6240;51.538;7.696;2023-02-18T02:57:42;26.23;;;19.40;;
12350;SDS011;6240;51.538;7.696;2023-02-18T03:00:12;22.10;;;16.93;;
12350;SDS011;6240;51.538;7.696;2023-02-18T03:02:44;21.53;;;17.40;;
12350;SDS011;6240;51.538;7.696;2023-02-18T03:05:20;24.40;;;17.33;;
12350;SDS011;6240;51.538;7.696;2023-02-18T03:07:55;24.50;;;17.50;;
12350;SDS011;6240;51.538;7.696;2023-02-18T03:10:35;23.50;;;17.10;;
12350;SDS011;6240;51.538;7.696;2023-02-18T03:13:06;21.73;;;16.77;;
12350;SDS011;6240;51.538;7.696;2023-02-18T03:15:38;20.03;;;15.73;;
12350;SDS011;6240;51.538;7.696;2023-02-18T03:18:07;20.37;;;15.60;;
12350;SDS011;6240;51.538;7.696;2023-02-18T03:20:40;19.17;;;15.10;;
12350;SDS011;6240;51.538;7.696;2023-02-18T03:23:11;16.57;;;13.57;;
12350;SDS011;6240;51.538;7.696;2023-02-18T03:25:42;19.20;;;14.10;;
12350;SDS011;6240;51.538;7.696;2023-02-18T03:28:13;16.53;;;13.53;;
12350;SDS011;6240;51.538;7.696;2023-02-18T03:30:42;16.80;;;13.00;;
12350;SDS011;6240;51.538;7.696;2023-02-18T03:33:13;15.90;;;13.23;;
12350;SDS011;6240;51.538;7.696;2023-02-18T03:35:45;15.57;;;12.47;;
12350;SDS011;6240;51.538;7.696;2023-02-18T03:38:14;13.23;;;11.60;;
12350;SDS011;6240;51.538;7.696;2023-02-18T03:40:46;14.53;;;11.80;;
12350;SDS011;6240;51.538;7.696;2023-02-18T03:43:13;13.40;;;11.07;;
12350;SDS011;6240;51.538;7.696;2023-02-18T03:45:43;12.70;;;10.77;;
12350;SDS011;6240;51.538;7.696;2023-02-18T03:48:11;12.77;;;10.53;;
12350;SDS011;6240;51.538;7.696;2023-02-18T03:50:39;12.47;;;10.53;;
12350;SDS011;6240;51.538;7.696;2023-02-18T03:53:09;13.93;;;10.93;;
12350;SDS011;6240;51.538;7.696;2023-02-18T03:55:36;17.57;;;10.60;;
12350;SDS011;6240;51.538;7.696;2023-02-18T03:58:04;12.57;;;10.60;;
12350;SDS011;6240;51.538;7.696;2023-02-18T04:00:35;16.37;;;10.83;;
12350;SDS011;6240;51.538;7.696;2023-02-18T04:03:03;12.83;;;10.03;;
12350;SDS011;6240;51.538;7.696;2023-02-18T04:05:30;11.83;;;10.60;;
12350;SDS011;6240;51.538;7.696;2023-02-18T04:08:00;13.87;;;9.70;;
12350;SDS011;6240;51.538;7.696;2023-02-18T04:10:28;11.03;;;9.77;;
12350;SDS011;6240;51.538;7.696;2023-02-18T04:12:56;11.97;;;10.13;;
12350;SDS011;6240;51.538;7.696;2023-02-18T04:15:23;10.93;;;9.37;;
12350;SDS011;6240;51.538;7.696;2023-02-18T04:17:55;9.70;;;8.70;;
12350;SDS011;6240;51.538;7.696;2023-02-18T04:20:22;9.93;;;8.93;;
12350;SDS011;6240;51.538;7.696;2023-02-18T04:22:49;9.73;;;8.73;;
12350;SDS011;6240;51.538;7.696;2023-02-18T04:25:17;9.83;;;8.57;;
12350;SDS011;6240;51.538;7.696;2023-02-18T04:27:46;9.60;;;8.23;;
12350;SDS011;6240;51.538;7.696;2023-02-18T04:30:14;9.80;;;8.70;;
12350;SDS011;6240;51.538;7.696;2023-02-18T04:32:41;9.60;;;8.23;;
12350;SDS011;6240;51.538;7.696;2023-02-18T04:35:09;11.67;;;9.20;;
12350;SDS011;6240;51.538;7.696;2023-02-18T04:37:40;10.00;;;8.97;;
12350;SDS011;6240;51.538;7.696;2023-02-18T04:40:09;9.40;;;8.40;;
12350;SDS011;6240;51.538;7.696;2023-02-18T04:42:37;11.80;;;9.13;;
12350;SDS011;6240;51.538;7.696;2023-02-18T04:45:08;10.70;;;8.80;;
12350;SDS011;6240;51.538;7.696;2023-02-18T04:47:37;10.27;;;8.83;;
12350;SDS011;6240;51.538;7.696;2023-02-18T04:50:05;10.63;;;8.53;;
12350;SDS011;6240;51.538;7.696;2023-02-18T04:52:38;12.97;;;8.40;;
12350;SDS011;6240;51.538;7.696;2023-02-18T04:55:06;11.33;;;8.47;;
12350;SDS011;6240;51.538;7.696;2023-02-18T04:57:34;10.60;;;8.27;;
12350;SDS011;6240;51.538;7.696;2023-02-18T05:00:02;9.20;;;7.63;;
12350;SDS011;6240;51.538;7.696;2023-02-18T05:02:32;8.67;;;7.07;;
12350;SDS011;6240;51.538;7.696;2023-02-18T05:05:01;8.63;;;7.33;;
12350;SDS011;6240;51.538;7.696;2023-02-18T05:07:29;8.33;;;6.70;;
12350;SDS011;6240;51.538;7.696;2023-02-18T05:09:56;8.80;;;6.47;;
12350;SDS011;6240;51.538;7.696;2023-02-18T05:12:25;8.50;;;6.83;;
12350;SDS011;6240;51.538;7.696;2023-02-18T05:14:52;9.97;;;6.33;;
12350;SDS011;6240;51.538;7.696;2023-02-18T05:17:20;9.07;;;6.30;;
12350;SDS011;6240;51.538;7.696;2023-02-18T05:19:50;5.90;;;4.90;;
12350;SDS011;6240;51.538;7.696;2023-02-18T05:22:17;8.03;;;5.07;;
12350;SDS011;6240;51.538;7.696;2023-02-18T05:24:47;6.77;;;5.13;;
12350;SDS011;6240;51.538;7.696;2023-02-18T05:27:15;5.67;;;4.80;;
12350;SDS011;6240;51.538;7.696;2023-02-18T05:29:43;5.03;;;4.33;;
12350;SDS011;6240;51.538;7.696;2023-02-18T05:32:11;5.17;;;4.00;;
12350;SDS011;6240;51.538;7.696;2023-02-18T05:34:39;5.13;;;4.07;;
12350;SDS011;6240;51.538;7.696;2023-02-18T05:37:11;5.33;;;3.80;;
12350;SDS011;6240;51.538;7.696;2023-02-18T05:39:41;3.50;;;3.17;;
12350;SDS011;6240;51.538;7.696;2023-02-18T05:42:09;3.93;;;3.23;;
12350;SDS011;6240;51.538;7.696;2023-02-18T05:44:36;3.53;;;2.90;;
12350;SDS011;6240;51.538;7.696;2023-02-18T05:47:06;2.90;;;2.50;;
12350;SDS011;6240;51.538;7.696;2023-02-18T05:49:34;2.73;;;2.20;;
12350;SDS011;6240;51.538;7.696;2023-02-18T05:52:02;2.60;;;2.20;;
12350;SDS011;6240;51.538;7.696;2023-02-18T05:54:30;2.27;;;1.90;;
12350;SDS011;6240;51.538;7.696;2023-02-18T05:57:01;2.33;;;1.97;;
12350;SDS011;6240;51.538;7.696;2023-02-18T05:59:29;1.97;;;1.77;;
12350;SDS011;6240;51.538;7.696;2023-02-18T06:01:56;1.87;;;1.70;;
12350;SDS011;6240;51.538;7.696;2023-02-18T06:04:25;1.80;;;1.70;;
12350;SDS011;6240;51.538;7.696;2023-02-18T06:06:52;2.30;;;1.40;;
12350;SDS011;6240;51.538;7.696;2023-02-18T06:09:20;1.57;;;1.47;;
12350;SDS011;6240;51.538;7.696;2023-02-18T06:11:49;1.70;;;1.40;;
12350;SDS011;6240;51.538;7.696;2023-02-18T06:14:21;1.20;;;1.10;;
12350;SDS011;6240;51.538;7.696;2023-02-18T06:16:49;1.50;;;1.40;;
12350;SDS011;6240;51.538;7.696;2023-02-18T06:19:16;2.13;;;1.50;;
12350;SDS011;6240;51.538;7.696;2023-02-18T06:21:45;1.63;;;1.27;;
12350;SDS011;6240;51.538;7.696;2023-02-18T06:24:13;2.23;;;1.40;;
12350;SDS011;6240;51.538;7.696;2023-02-18T06:26:41;1.50;;;1.40;;
12350;SDS011;6240;51.538;7.696;2023-02-18T06:29:09;1.57;;;1.40;;
12350;SDS011;6240;51.538;7.696;2023-02-18T06:31:39;1.80;;;1.53;;
12350;SDS011;6240;51.538;7.696;2023-02-18T06:34:07;1.93;;;1.70;;
12350;SDS011;6240;51.538;7.696;2023-02-18T06:36:35;1.50;;;1.40;;
12350;SDS011;6240;51.538;7.696;2023-02-18T06:39:06;1.83;;;1.73;;
12350;SDS011;6240;51.538;7.696;2023-02-18T06:41:35;1.63;;;1.53;;
12350;SDS011;6240;51.538;7.696;2023-02-18T06:44:02;1.73;;;1.60;;
12350;SDS011;6240;51.538;7.696;2023-02-18T06:46:37;1.73;;;1.60;;
12350;SDS011;6240;51.538;7.696;2023-02-18T06:49:05;1.57;;;1.47;;
12350;SDS011;6240;51.538;7.696;2023-02-18T06:51:32;1.60;;;1.50;;
12350;SDS011;6240;51.538;7.696;2023-02-18T06:53:59;1.90;;;1.80;;
12350;SDS011;6240;51.538;7.696;2023-02-18T06:56:28;2.33;;;2.13;;
12350;SDS011;6240;51.538;7.696;2023-02-18T06:58:58;2.03;;;1.83;;
12350;SDS011;6240;51.538;7.696;2023-02-18T07:01:25;1.83;;;1.70;;
12350;SDS011;6240;51.538;7.696;2023-02-18T07:04:01;1.77;;;1.67;;
12350;SDS011;6240;51.538;7.696;2023-02-18T07:06:28;1.93;;;1.80;;
12350;SDS011;6240;51.538;7.696;2023-02-18T07:08:56;2.13;;;1.90;;
12350;SDS011;6240;51.538;7.696;2023-02-18T07:11:26;1.90;;;1.80;;
12350;SDS011;6240;51.538;7.696;2023-02-18T07:13:54;1.80;;;1.70;;
12350;SDS011;6240;51.538;7.696;2023-02-18T07:16:22;1.70;;;1.60;;
12350;SDS011;6240;51.538;7.696;2023-02-18T07:18:53;1.87;;;1.77;;
12350;SDS011;6240;51.538;7.696;2023-02-18T07:21:23;3.33;;;1.90;;
12350;SDS011;6240;51.538;7.696;2023-02-18T07:23:52;3.80;;;2.00;;
12350;SDS011;6240;51.538;7.696;2023-02-18T07:26:19;2.80;;;2.10;;
12350;SDS011;6240;51.538;7.696;2023-02-18T07:28:47;1.87;;;1.73;;
12350;SDS011;6240;51.538;7.696;2023-02-18T07:31:16;2.87;;;1.87;;
12350;SDS011;6240;51.538;7.696;2023-02-18T07:33:54;2.30;;;2.03;;
12350;SDS011;6240;51.538;7.696;2023-02-18T07:36:24;2.10;;;2.00;;
12350;SDS011;6240;51.538;7.696;2023-02-18T07:38:53;2.33;;;2.13;;
12350;SDS011;6240;51.538;7.696;2023-02-18T07:41:21;2.67;;;2.20;;
12350;SDS011;6240;51.538;7.696;2023-02-18T07:43:51;2.67;;;2.07;;
12350;SDS011;6240;51.538;7.696;2023-02-18T07:46:19;2.40;;;2.20;;
12350;SDS011;6240;51.538;7.696;2023-02-18T07:48:47;2.33;;;2.13;;
12350;SDS011;6240;51.538;7.696;2023-02-18T07:51:16;2.40;;;2.20;;
12350;SDS011;6240;51.538;7.696;2023-02-18T07:53:47;2.80;;;2.60;;
12350;SDS011;6240;51.538;7.696;2023-02-18T07:56:16;3.10;;;2.53;;
12350;SDS011;6240;51.538;7.696;2023-02-18T07:58:44;3.63;;;2.57;;
12350;SDS011;6240;51.538;7.696;2023-02-18T08:01:11;3.23;;;2.60;;
12350;SDS011;6240;51.538;7.696;2023-02-18T08:03:40;3.60;;;2.73;;
12350;SDS011;6240;51.538;7.696;2023-02-18T08:06:07;2.70;;;2.50;;
12350;SDS011;6240;51.538;7.696;2023-02-18T08:08:36;2.43;;;2.23;;
12350;SDS011;6240;51.538;7.696;2023-02-18T08:11:13;2.37;;;2.17;;
12350;SDS011;6240;51.538;7.696;2023-02-18T08:13:45;2.77;;;2.40;;
12350;SDS011;6240;51.538;7.696;2023-02-18T08:16:16;2.50;;;2.30;;
12350;SDS011;6240;51.538;7.696;2023-02-18T08:18:44;2.93;;;2.63;;
12350;SDS011;6240;51.538;7.696;2023-02-18T08:21:15;2.70;;;2.50;;
12350;SDS011;6240;51.538;7.696;2023-02-18T08:23:51;2.43;;;2.23;;
12350;SDS011;6240;51.538;7.696;2023-02-18T08:26:24;3.83;;;2.13;;
12350;SDS011;6240;51.538;7.696;2023-02-18T08:28:56;2.30;;;2.10;;
12350;SDS011;6240;51.538;7.696;2023-02-18T08:31:24;1.97;;;1.87;;
12350;SDS011;6240;51.538;7.696;2023-02-18T08:33:55;2.20;;;1.87;;
12350;SDS011;6240;51.538;7.696;2023-02-18T08:36:24;2.67;;;2.10;;
12350;SDS011;6240;51.538;7.696;2023-02-18T08:38:52;1.70;;;1.60;;
12350;SDS011;6240;51.538;7.696;2023-02-18T08:41:26;1.63;;;1.50;;
12350;SDS011;6240;51.538;7.696;2023-02-18T08:43:55;2.77;;;1.50;;
12350;SDS011;6240;51.538;7.696;2023-02-18T08:46:24;1.50;;;1.40;;
12350;SDS011;6240;51.538;7.696;2023-02-18T08:49:04;1.33;;;1.23;;
12350;SDS011;6240;51.538;7.696;2023-02-18T08:51:35;1.47;;;1.37;;
12350;SDS011;6240;51.538;7.696;2023-02-18T08:54:03;1.30;;;1.20;;
12350;SDS011;6240;51.538;7.696;2023-02-18T08:56:35;1.80;;;1.17;;
12350;SDS011;6240;51.538;7.696;2023-02-18T08:59:06;1.20;;;1.10;;
12350;SDS011;6240;51.538;7.696;2023-02-18T09:01:36;1.40;;;1.30;;
12350;SDS011;6240;51.538;7.696;2023-02-18T09:04:15;1.63;;;1.30;;
12350;SDS011;6240;51.538;7.696;2023-02-18T09:06:45;1.50;;;1.13;;
12350;SDS011;6240;51.538;7.696;2023-02-18T09:09:14;1.40;;;1.30;;
12350;SDS011;6240;51.538;7.696;2023-02-18T09:11:43;1.17;;;1.17;;
12350;SDS011;6240;51.538;7.696;2023-02-18T09:14:11;1.77;;;1.47;;
12350;SDS011;6240;51.538;7.696;2023-02-18T09:16:43;1.27;;;1.17;;
12350;SDS011;6240;51.538;7.696;2023-02-18T09:19:17;1.43;;;1.07;;
12350;SDS011;6240;51.538;7.696;2023-02-18T09:21:54;1.87;;;1.40;;
12350;SDS011;6240;51.538;7.696;2023-02-18T09:24:26;1.40;;;1.30;;
12350;SDS011;6240;51.538;7.696;2023-02-18T09:26:54;1.60;;;1.50;;
12350;SDS011;6240;51.538;7.696;2023-02-18T09:29:21;2.17;;;1.60;;
12350;SDS011;6240;51.538;7.696;2023-02-18T09:31:49;3.20;;;1.50;;
12350;SDS011;6240;51.538;7.696;2023-02-18T09:34:27;4.13;;;2.00;;
12350;SDS011;6240;51.538;7.696;2023-02-18T09:36:58;4.90;;;2.27;;
12350;SDS011;6240;51.538;7.696;2023-02-18T09:39:26;4.90;;;1.90;;
12350;SDS011;6240;51.538;7.696;2023-02-18T09:41:58;4.07;;;1.90;;
12350;SDS011;6240;51.538;7.696;2023-02-18T09:44:27;3.90;;;2.53;;
12350;SDS011;6240;51.538;7.696;2023-02-18T09:46:58;4.43;;;2.40;;
12350;SDS011;6240;51.538;7.696;2023-02-18T09:49:31;3.30;;;2.27;;
12350;SDS011;6240;51.538;7.696;2023-02-18T09:52:04;5.10;;;2.10;;
12350;SDS011;6240;51.538;7.696;2023-02-18T09:54:36;4.67;;;2.60;;
12350;SDS011;6240;51.538;7.696;2023-02-18T09:57:07;4.30;;;2.20;;
12350;SDS011;6240;51.538;7.696;2023-02-18T09:59:41;5.77;;;2.90;;
12350;SDS011;6240;51.538;7.696;2023-02-18T10:02:09;9.03;;;3.10;;
12350;SDS011;6240;51.538;7.696;2023-02-18T10:04:42;5.33;;;2.43;;
12350;SDS011;6240;51.538;7.696;2023-02-18T10:07:11;8.03;;;2.83;;
12350;SDS011;6240;51.538;7.696;2023-02-18T10:09:47;6.63;;;2.63;;
12350;SDS011;6240;51.538;7.696;2023-02-18T10:12:40;4.90;;;3.00;;
12350;SDS011;6240;51.538;7.696;2023-02-18T10:15:10;4.90;;;3.50;;
12350;SDS011;6240;51.538;7.696;2023-02-18T10:17:43;4.30;;;2.87;;
12350;SDS011;6240;51.538;7.696;2023-02-18T10:20:14;5.33;;;3.10;;
12350;SDS011;6240;51.538;7.696;2023-02-18T10:22:44;6.27;;;3.20;;
12350;SDS011;6240;51.538;7.696;2023-02-18T10:25:15;6.70;;;3.47;;
12350;SDS011;6240;51.538;7.696;2023-02-18T10:27:54;6.67;;;3.00;;
12350;SDS011;6240;51.538;7.696;2023-02-18T10:30:31;8.03;;;3.07;;
12350;SDS011;6240;51.538;7.696;2023-02-18T10:33:07;7.53;;;3.43;;
12350;SDS011;6240;51.538;7.696;2023-02-18T10:35:38;9.13;;;2.97;;
12350;SDS011;6240;51.538;7.696;2023-02-18T10:38:11;6.37;;;3.23;;
12350;SDS011;6240;51.538;7.696;2023-02-18T10:40:45;7.60;;;3.27;;
12350;SDS011;6240;51.538;7.696;2023-02-18T10:43:19;7.07;;;3.50;;
12350;SDS011;6240;51.538;7.696;2023-02-18T10:45:50;6.20;;;3.20;;
12350;SDS011;6240;51.538;7.696;2023-02-18T10:48:24;8.23;;;3.50;;
12350;SDS011;6240;51.538;7.696;2023-02-18T10:50:56;8.27;;;3.67;;
12350;SDS011;6240;51.538;7.696;2023-02-18T10:53:30;6.40;;;3.00;;
12350;SDS011;6240;51.538;7.696;2023-02-18T10:56:02;5.93;;;3.17;;
12350;SDS011;6240;51.538;7.696;2023-02-18T10:58:32;5.33;;;3.30;;
12350;SDS011;6240;51.538;7.696;2023-02-18T11:01:00;8.20;;;3.43;;
12350;SDS011;6240;51.538;7.696;2023-02-18T11:03:39;7.67;;;3.53;;
12350;SDS011;6240;51.538;7.696;2023-02-18T11:06:26;6.33;;;3.00;;
12350;SDS011;6240;51.538;7.696;2023-02-18T11:08:57;6.63;;;3.13;;
12350;SDS011;6240;51.538;7.696;2023-02-18T11:11:27;7.73;;;2.97;;
12350;SDS011;6240;51.538;7.696;2023-02-18T11:13:59;7.20;;;3.37;;
12350;SDS011;6240;51.538;7.696;2023-02-18T11:16:36;5.07;;;3.40;;
12350;SDS011;6240;51.538;7.696;2023-02-18T11:19:30;6.77;;;2.90;;
12350;SDS011;6240;51.538;7.696;2023-02-18T11:22:05;7.17;;;3.80;;
12350;SDS011;6240;51.538;7.696;2023-02-18T11:24:36;6.73;;;4.00;;
12350;SDS011;6240;51.538;7.696;2023-02-18T11:27:06;7.77;;;4.00;;
12350;SDS011;6240;51.538;7.696;2023-02-18T11:29:36;9.03;;;3.73;;
12350;SDS011;6240;51.538;7.696;2023-02-18T11:32:09;8.57;;;4.53;;
12350;SDS011;6240;51.538;7.696;2023-02-18T11:34:44;6.33;;;4.60;;
12350;SDS011;6240;51.538;7.696;2023-02-18T11:37:16;5.63;;;5.10;;
12350;SDS011;6240;51.538;7.696;2023-02-18T11:39:45;11.53;;;6.53;;
12350;SDS011;6240;51.538;7.696;2023-02-18T11:42:14;8.47;;;5.50;;
12350;SDS011;6240;51.538;7.696;2023-02-18T11:44:48;9.23;;;5.80;;
12350;SDS011;6240;51.538;7.696;2023-02-18T11:47:21;7.80;;;5.33;;
12350;SDS011;6240;51.538;7.696;2023-02-18T11:49:58;6.03;;;4.57;;
12350;SDS011;6240;51.538;7.696;2023-02-18T11:52:27;7.57;;;4.33;;
12350;SDS011;6240;51.538;7.696;2023-02-18T11:55:02;6.93;;;4.10;;
12350;SDS011;6240;51.538;7.696;2023-02-18T11:57:37;7.33;;;4.23;;
12350;SDS011;6240;51.538;7.696;2023-02-18T12:00:14;7.43;;;5.37;;
12350;SDS011;6240;51.538;7.696;2023-02-18T12:02:43;7.23;;;5.63;;
12350;SDS011;6240;51.538;7.696;2023-02-18T12:05:11;6.40;;;5.70;;
12350;SDS011;6240;51.538;7.696;2023-02-18T12:07:47;7.10;;;5.37;;
12350;SDS011;6240;51.538;7.696;2023-02-18T12:10:18;6.27;;;4.53;;
12350;SDS011;6240;51.538;7.696;2023-02-18T12:12:55;6.23;;;4.30;;
12350;SDS011;6240;51.538;7.696;2023-02-18T12:23:50;5.03;;;4.37;;
12350;SDS011;6240;51.538;7.696;2023-02-18T12:26:24;6.40;;;4.50;;
12350;SDS011;6240;51.538;7.696;2023-02-18T12:31:41;4.33;;;3.70;;
12350;SDS011;6240;51.538;7.696;2023-02-18T12:34:20;5.00;;;3.80;;
12350;SDS011;6240;51.538;7.696;2023-02-18T12:36:57;4.47;;;3.70;;
12350;SDS011;6240;51.538;7.696;2023-02-18T12:39:34;4.47;;;3.60;;
12350;SDS011;6240;51.538;7.696;2023-02-18T12:42:08;5.83;;;3.50;;
12350;SDS011;6240;51.538;7.696;2023-02-18T12:44:40;4.23;;;3.50;;
12350;SDS011;6240;51.538;7.696;2023-02-18T12:47:15;5.17;;;3.57;;
12350;SDS011;6240;51.538;7.696;2023-02-18T12:49:54;3.60;;;3.30;;
12350;SDS011;6240;51.538;7.696;2023-02-18T12:52:29;4.40;;;3.70;;
12350;SDS011;6240;51.538;7.696;2023-02-18T12:57:51;5.33;;;3.87;;
12350;SDS011;6240;51.538;7.696;2023-02-18T13:00:34;7.27;;;3.77;;
12350;SDS011;6240;51.538;7.696;2023-02-18T13:03:15;5.83;;;3.67;;
12350;SDS011;6240;51.538;7.696;2023-02-18T13:06:02;3.90;;;3.50;;
12350;SDS011;6240;51.538;7.696;2023-02-18T13:08:44;4.10;;;3.70;;
12350;SDS011;6240;51.538;7.696;2023-02-18T13:11:19;4.13;;;3.67;;
12350;SDS011;6240;51.538;7.696;2023-02-18T13:13:52;3.83;;;3.10;;
12350;SDS011;6240;51.538;7.696;2023-02-18T13:16:22;5.00;;;4.00;;
12350;SDS011;6240;51.538;7.696;2023-02-18T13:18:54;4.57;;;3.70;;
12350;SDS011;6240;51.538;7.696;2023-02-18T13:21:25;4.37;;;3.83;;
12350;SDS011;6240;51.538;7.696;2023-02-18T13:23:54;3.53;;;3.23;;
12350;SDS011;6240;51.538;7.696;2023-02-18T13:26:22;5.77;;;4.10;;
12350;SDS011;6240;51.538;7.696;2023-02-18T13:28:54;3.73;;;3.30;;
12350;SDS011;6240;51.538;7.696;2023-02-18T13:31:27;3.77;;;3.47;;
12350;SDS011;6240;51.538;7.696;2023-02-18T13:34:02;4.60;;;4.20;;
12350;SDS011;6240;51.538;7.696;2023-02-18T13:36:45;4.20;;;3.80;;
12350;SDS011;6240;51.538;7.696;2023-02-18T13:39:14;4.30;;;3.90;;
12350;SDS011;6240;51.538;7.696;2023-02-18T13:41:45;4.77;;;4.27;;
12350;SDS011;6240;51.538;7.696;2023-02-18T13:47:05;5.53;;;4.70;;
12350;SDS011;6240;51.538;7.696;2023-02-18T13:49:38;5.40;;;4.90;;
12350;SDS011;6240;51.538;7.696;2023-02-18T13:52:14;5.70;;;4.83;;
12350;SDS011;6240;51.538;7.696;2023-02-18T13:54:45;6.17;;;5.50;;
12350;SDS011;6240;51.538;7.696;2023-02-18T13:57:13;8.90;;;5.50;;
12350;SDS011;6240;51.538;7.696;2023-02-18T13:59:43;7.43;;;5.90;;
12350;SDS011;6240;51.538;7.696;2023-02-18T14:05:19;7.17;;;5.60;;
12350;SDS011;6240;51.538;7.696;2023-02-18T14:07:51;6.90;;;6.07;;
12350;SDS011;6240;51.538;7.696;2023-02-18T14:10:26;5.43;;;4.90;;
12350;SDS011;6240;51.538;7.696;2023-02-18T14:15:57;8.87;;;6.67;;
12350;SDS011;6240;51.538;7.696;2023-02-18T14:18:32;6.83;;;6.13;;
12350;SDS011;6240;51.538;7.696;2023-02-18T14:21:16;8.33;;;6.20;;
12350;SDS011;6240;51.538;7.696;2023-02-18T14:23:59;8.27;;;5.50;;
12350;SDS011;6240;51.538;7.696;2023-02-18T14:26:28;6.10;;;5.50;;
12350;SDS011;6240;51.538;7.696;2023-02-18T14:29:03;6.20;;;5.47;;
12350;SDS011;6240;51.538;7.696;2023-02-18T14:31:35;6.90;;;6.20;;
12350;SDS011;6240;51.538;7.696;2023-02-18T14:36:58;8.83;;;6.10;;
12350;SDS011;6240;51.538;7.696;2023-02-18T14:39:33;9.43;;;6.80;;
12350;SDS011;6240;51.538;7.696;2023-02-18T14:42:05;8.57;;;6.90;;
12350;SDS011;6240;51.538;7.696;2023-02-18T14:44:38;8.87;;;7.60;;
12350;SDS011;6240;51.538;7.696;2023-02-18T14:47:13;9.63;;;7.20;;
12350;SDS011;6240;51.538;7.696;2023-02-18T14:49:43;9.83;;;7.70;;
12350;SDS011;6240;51.538;7.696;2023-02-18T14:52:18;10.43;;;8.17;;
12350;SDS011;6240;51.538;7.696;2023-02-18T14:54:49;10.17;;;8.27;;
12350;SDS011;6240;51.538;7.696;2023-02-18T14:57:16;12.47;;;9.17;;
12350;SDS011;6240;51.538;7.696;2023-02-18T14:59:45;10.30;;;8.63;;
12350;SDS011;6240;51.538;7.696;2023-02-18T15:02:18;12.43;;;9.27;;
12350;SDS011;6240;51.538;7.696;2023-02-18T15:04:45;13.60;;;9.63;;
12350;SDS011;6240;51.538;7.696;2023-02-18T15:07:17;13.47;;;10.47;;
12350;SDS011;6240;51.538;7.696;2023-02-18T15:09:47;12.50;;;10.83;;
12350;SDS011;6240;51.538;7.696;2023-02-18T15:12:17;15.57;;;12.27;;
12350;SDS011;6240;51.538;7.696;2023-02-18T15:14:47;16.60;;;12.50;;
12350;SDS011;6240;51.538;7.696;2023-02-18T15:17:18;15.90;;;11.63;;
12350;SDS011;6240;51.538;7.696;2023-02-18T15:19:48;16.50;;;13.23;;
12350;SDS011;6240;51.538;7.696;2023-02-18T15:22:20;18.77;;;13.83;;
12350;SDS011;6240;51.538;7.696;2023-02-18T15:24:50;20.23;;;14.83;;
12350;SDS011;6240;51.538;7.696;2023-02-18T15:27:18;17.07;;;14.13;;
12350;SDS011;6240;51.538;7.696;2023-02-18T15:29:48;18.80;;;15.07;;
12350;SDS011;6240;51.538;7.696;2023-02-18T15:32:17;19.00;;;14.87;;
12350;SDS011;6240;51.538;7.696;2023-02-18T15:34:48;19.67;;;14.53;;
12350;SDS011;6240;51.538;7.696;2023-02-18T15:37:19;21.40;;;16.10;;
12350;SDS011;6240;51.538;7.696;2023-02-18T15:39:51;20.23;;;16.07;;
12350;SDS011;6240;51.538;7.696;2023-02-18T15:42:26;20.90;;;14.97;;
12350;SDS011;6240;51.538;7.696;2023-02-18T15:44:56;20.57;;;15.43;;
12350;SDS011;6240;51.538;7.696;2023-02-18T15:47:29;21.03;;;15.67;;
12350;SDS011;6240;51.538;7.696;2023-02-18T15:49:58;18.33;;;15.10;;